Time;durP1;ratioP1;P1;durP2;ratioP2;P2;SDS_P1;SDS_P2;PMS_P1;PMS_P2;Temp;Humidity;BMP_temperature;BMP_pressure;BME280_temperature;BME280_humidity;BME280_pressure;Samples;Min_cycle;Max_cycle;Signal;HPM_P1;HPM_P2
2022/09/21 00:01:18;;;;;;;3.45;3.15;;;;;;;10.48;77.33;94448.78;1645408;86;21004;-60
2022/09/21 00:03:44;;;;;;;2.83;2.50;;;;;;;10.48;76.92;94451.53;1653939;86;21051;-61
2022/09/21 00:06:17;;;;;;;3.50;3.02;;;;;;;10.50;76.62;94446.97;1635991;86;21263;-58
2022/09/21 00:08:44;;;;;;;;;;;;;;;10.46;76.88;94451.22;1650057;86;21027;-58
2022/09/21 00:11:21;;;;;;;3.37;3.08;;;;;;;10.41;76.84;94451.05;1648529;86;20258;-57
2022/09/21 00:13:53;;;;;;;3.25;2.87;;;;;;;10.35;77.14;94456.98;1647384;86;21497;-60
2022/09/21 00:16:21;;;;;;;3.40;3.10;;;;;;;10.39;77.74;94450.73;1641776;86;21042;-57
2022/09/21 00:18:48;;;;;;;4.67;3.08;;;;;;;10.40;77.81;94452.27;1644320;86;21285;-57
2022/09/21 00:21:16;;;;;;;6.70;3.50;;;;;;;10.39;78.23;94454.23;1627389;86;21041;-57
2022/09/21 00:23:43;;;;;;;5.00;3.40;;;;;;;10.45;78.37;94450.29;1648468;86;21028;-57
2022/09/21 00:26:13;;;;;;;3.50;3.20;;;;;;;10.53;78.20;94455.68;1647796;86;21528;-58
2022/09/21 00:28:40;;;;;;;9.03;3.33;;;;;;;10.61;78.08;94449.45;1653505;86;20977;-58
2022/09/21 00:31:11;;;;;;;4.03;3.62;;;;;;;10.74;77.82;94454.98;1642315;85;21093;-58
2022/09/21 00:33:39;;;;;;;3.47;3.17;;;;;;;10.82;77.35;94448.58;1646782;86;21083;-59
2022/09/21 00:36:10;;;;;;;4.95;3.75;;;;;;;10.82;76.36;94452.08;1622318;86;21043;-58
2022/09/21 00:38:37;;;;;;;4.60;3.20;;;;;;;10.69;76.09;94436.92;1643939;86;21078;-57
2022/09/21 00:41:05;;;;;;;5.90;3.20;;;;;;;10.55;76.47;94450.48;1634296;86;21137;-59
2022/09/21 00:43:45;;;;;;;4.00;3.60;;;;;;;10.53;76.26;94452.31;1637233;85;21147;-56
2022/09/21 00:46:24;;;;;;;7.25;3.20;;;;;;;10.48;76.37;94450.75;1645354;86;21484;-58
2022/09/21 00:48:51;;;;;;;3.50;3.20;;;;;;;10.43;76.35;94441.14;1664687;86;21555;-58
2022/09/21 00:51:17;;;;;;;3.87;3.47;;;;;;;10.35;76.32;94450.11;1630304;86;21012;-58
2022/09/21 00:53:44;;;;;;;3.30;3.10;;;;;;;10.22;76.62;94444.72;1625828;86;21570;-57
2022/09/21 00:56:10;;;;;;;3.80;3.40;;;;;;;10.13;77.02;94448.04;1628868;86;21833;-58
2022/09/21 00:58:41;;;;;;;3.20;2.90;;;;;;;10.05;77.52;94448.13;1602414;87;21007;-56
2022/09/21 01:01:08;;;;;;;3.30;3.00;;;;;;;10.10;78.26;94443.42;1640815;86;20991;-58
2022/09/21 01:03:35;;;;;;;4.42;3.15;;;;;;;10.21;78.05;94443.79;1632674;86;21011;-58
2022/09/21 01:06:02;;;;;;;3.47;2.92;;;;;;;10.18;77.94;94446.07;1645873;86;21612;-57
2022/09/21 01:08:32;;;;;;;6.80;3.00;;;;;;;10.13;77.84;94448.79;1620067;88;21075;-57
2022/09/21 01:11:24;;;;;;;5.55;2.90;;;;;;;10.10;77.56;94439.30;1621222;88;20999;-59
2022/09/21 01:14:06;;;;;;;3.67;3.10;;;;;;;10.06;77.87;94442.80;1620091;88;21074;-58
2022/09/21 01:16:41;;;;;;;10.28;3.30;;;;;;;10.16;77.85;94443.02;1626233;86;21063;-57
2022/09/21 01:19:34;;;;;;;2.80;2.60;;;;;;;10.18;78.10;94440.57;1639202;86;21033;-59
2022/09/21 01:22:45;;;;;;;3.35;3.00;;;;;;;10.20;78.14;94440.88;1651627;85;21896;-58
2022/09/21 01:25:50;;;;;;;3.67;3.22;;;;;;;10.27;78.23;94440.59;1644705;85;21532;-58
2022/09/21 01:28:38;;;;;;;3.22;2.92;;;;;;;10.30;77.83;94434.97;1617573;86;21065;-58
2022/09/21 01:31:04;;;;;;;4.47;3.25;;;;;;;10.29;77.47;94443.06;1622032;85;21066;-59
2022/09/21 01:33:36;;;;;;;3.45;3.15;;;;;;;10.18;77.40;94439.20;1640983;85;21122;-57
2022/09/21 01:36:07;;;;;;;3.65;3.30;;;;;;;10.15;77.56;94433.98;1623387;87;21288;-58
2022/09/21 01:38:44;;;;;;;3.80;3.50;;;;;;;10.13;77.33;94435.67;1610138;86;21090;-59
2022/09/21 01:41:12;;;;;;;3.80;3.45;;;;;;;10.06;77.84;94429.05;1644477;86;21118;-60
2022/09/21 01:43:46;;;;;;;3.58;3.27;;;;;;;10.12;78.05;94434.11;1648896;86;22413;-59
2022/09/21 01:46:16;;;;;;;4.83;3.37;;;;;;;10.16;77.83;94432.77;1646689;85;21030;-60
2022/09/21 01:48:46;;;;;;;5.47;4.97;;;;;;;10.19;78.35;94434.61;1637939;85;21230;-60
2022/09/21 01:51:15;;;;;;;7.95;6.67;;;;;;;10.28;78.16;94431.91;1624747;88;21044;-60
2022/09/21 01:53:46;;;;;;;6.50;5.83;;;;;;;10.29;77.65;94432.66;1622500;88;21027;-61
2022/09/21 01:56:20;;;;;;;8.23;4.72;;;;;;;10.21;77.55;94434.95;1619841;88;21110;-59
2022/09/21 01:59:04;;;;;;;4.40;4.00;;;;;;;10.12;77.79;94434.11;1614111;86;21117;-57
2022/09/21 02:01:31;;;;;;;4.15;3.83;;;;;;;10.10;78.02;94433.80;1637028;86;21178;-57
2022/09/21 02:04:10;;;;;;;4.25;3.20;;;;;;;10.08;78.15;94423.27;1608633;88;21054;-58
2022/09/21 02:06:41;;;;;;;4.12;3.45;;;;;;;10.06;78.06;94425.71;1606078;88;21035;-57
2022/09/21 02:09:08;;;;;;;3.55;3.25;;;;;;;10.09;77.97;94424.80;1605060;87;21096;-57
2022/09/21 02:11:43;;;;;;;3.50;3.20;;;;;;;10.18;77.69;94416.58;1632054;86;21543;-57
2022/09/21 02:14:09;;;;;;;3.27;3.00;;;;;;;10.18;77.04;94430.95;1616010;87;21811;-58
2022/09/21 02:16:52;;;;;;;3.10;2.80;;;;;;;10.11;77.09;94431.98;1651654;85;21022;-58
2022/09/21 02:19:58;;;;;;;4.85;2.83;;;;;;;10.10;77.44;94435.17;1656988;86;21461;-57
2022/09/21 02:22:40;;;;;;;4.05;3.55;;;;;;;10.09;77.03;94437.77;1608160;88;21011;-57
2022/09/21 02:25:13;;;;;;;4.37;3.27;;;;;;;10.08;77.45;94440.36;1627167;85;21096;-57
2022/09/21 02:28:10;;;;;;;3.72;3.40;;;;;;;10.12;77.69;94438.23;1644983;85;21269;-57
2022/09/21 02:30:37;;;;;;;5.20;3.62;;;;;;;10.20;77.92;94436.77;1647608;86;21006;-58
2022/09/21 02:33:28;;;;;;;6.30;3.80;;;;;;;10.30;77.43;94439.69;1638401;86;21651;-57
2022/09/21 02:36:06;;;;;;;5.92;3.62;;;;;;;10.30;77.18;94439.69;1648628;86;21643;-58
2022/09/21 02:38:52;;;;;;;4.55;3.72;;;;;;;10.21;76.81;94436.91;1638270;87;21032;-57
2022/09/21 02:41:30;;;;;;;7.05;4.05;;;;;;;10.11;77.07;94438.86;1648931;84;21174;-57
2022/09/21 02:44:05;;;;;;;4.08;3.67;;;;;;;10.01;77.37;94445.52;1653222;86;21020;-59
2022/09/21 02:46:49;;;;;;;7.05;3.47;;;;;;;10.00;77.59;94447.33;1654261;84;21079;-56
2022/09/21 02:49:38;;;;;;;3.40;3.10;;;;;;;10.04;77.61;94449.35;1655007;85;21043;-57
2022/09/21 02:52:10;;;;;;;5.42;3.33;;;;;;;10.03;77.24;94449.98;1653541;86;21046;-57
2022/09/21 02:54:36;;;;;;;6.83;3.60;;;;;;;9.95;77.46;94452.03;1622920;88;21076;-56
2022/09/21 02:57:04;;;;;;;3.58;3.27;;;;;;;9.92;77.49;94451.53;1642233;85;20989;-57
2022/09/21 02:59:31;;;;;;;4.12;3.65;;;;;;;9.93;77.27;94453.07;1638171;86;21002;-56
2022/09/21 03:01:59;;;;;;;8.48;4.22;;;;;;;9.88;77.73;94452.28;1654182;85;21023;-58
2022/09/21 03:04:27;;;;;;;4.55;4.15;;;;;;;9.90;77.83;94456.12;1645067;86;21059;-59
2022/09/21 03:06:53;;;;;;;4.22;3.83;;;;;;;9.95;78.07;94453.41;1642595;86;21833;-56
2022/09/21 03:09:23;;;;;;;3.45;3.12;;;;;;;10.00;78.05;94454.20;1655655;85;21130;-59
2022/09/21 03:11:51;;;;;;;3.55;3.25;;;;;;;9.99;77.75;94449.92;1648562;85;20981;-58
2022/09/21 03:14:18;;;;;;;3.08;2.77;;;;;;;9.92;77.72;94455.66;1642840;86;21069;-58
2022/09/21 03:16:45;;;;;;;3.27;2.98;;;;;;;9.87;77.95;94453.50;1646354;84;21095;-62
2022/09/21 03:19:12;;;;;;;3.33;3.00;;;;;;;9.87;77.88;94454.88;1666837;85;21303;-58
2022/09/21 03:21:40;;;;;;;3.08;2.87;;;;;;;9.96;77.69;94455.70;1657531;84;20980;-59
2022/09/21 03:24:06;;;;;;;2.75;2.55;;;;;;;10.05;77.48;94455.00;1642638;87;21119;-59
2022/09/21 03:26:35;;;;;;;4.03;3.62;;;;;;;10.12;77.00;94448.63;1655432;85;21118;-61
2022/09/21 03:29:03;;;;;;;7.53;5.72;;;;;;;10.11;77.15;94451.82;1667017;85;20996;-58
2022/09/21 03:31:30;;;;;;;7.87;5.83;;;;;;;9.97;77.26;94444.11;1659516;85;21271;-60
2022/09/21 03:33:57;;;;;;;9.28;5.78;;;;;;;9.90;77.46;94456.72;1643031;85;21036;-59
2022/09/21 03:36:24;;;;;;;9.15;5.78;;;;;;;9.84;77.57;94451.66;1652789;84;21064;-59
2022/09/21 03:38:51;;;;;;;7.75;6.03;;;;;;;9.83;78.00;94458.37;1652564;85;21119;-57
2022/09/21 03:41:18;;;;;;;6.65;5.12;;;;;;;9.88;78.48;94454.44;1644508;86;21197;-61
2022/09/21 03:43:45;;;;;;;5.78;4.45;;;;;;;9.98;78.53;94457.38;1652537;85;21242;-62
2022/09/21 03:46:11;;;;;;;11.85;6.22;;;;;;;10.04;78.03;94456.22;1672534;85;21027;-59
2022/09/21 03:48:41;;;;;;;8.30;6.22;;;;;;;10.02;77.98;94457.28;1661808;85;21048;-57
2022/09/21 03:51:08;;;;;;;11.45;6.42;;;;;;;9.97;77.86;94459.22;1643313;86;21048;-56
2022/09/21 03:53:34;;;;;;;10.23;6.33;;;;;;;9.84;77.94;94452.41;1657979;85;21074;-58
2022/09/21 03:56:01;;;;;;;7.00;5.60;;;;;;;9.77;78.36;94461.55;1658529;85;21293;-58
2022/09/21 03:58:28;;;;;;;8.33;5.53;;;;;;;9.76;78.40;94453.90;1660433;85;21046;-58
2022/09/21 04:00:56;;;;;;;7.22;5.20;;;;;;;9.65;78.31;94455.50;1656778;85;21582;-58
2022/09/21 04:03:23;;;;;;;6.08;5.37;;;;;;;9.53;78.59;94463.19;1621040;86;21106;-57
2022/09/21 04:05:49;;;;;;;6.55;5.17;;;;;;;9.37;79.19;94462.78;1651284;86;21039;-58
2022/09/21 04:08:16;;;;;;;7.05;4.42;;;;;;;9.37;79.37;94460.63;1645578;86;21881;-58
2022/09/21 04:10:44;;;;;;;4.20;3.80;;;;;;;9.35;79.52;94464.42;1651722;85;21047;-58
2022/09/21 04:13:12;;;;;;;2.92;2.62;;;;;;;9.42;79.72;94462.82;1644981;85;21016;-57
2022/09/21 04:15:38;;;;;;;3.60;3.22;;;;;;;9.56;79.55;94471.91;1652725;85;21026;-58
2022/09/21 04:18:06;;;;;;;3.40;3.10;;;;;;;9.71;78.93;94466.06;1615492;86;21119;-58
2022/09/21 04:20:33;;;;;;;4.37;3.08;;;;;;;9.72;78.44;94468.97;1642395;86;21252;-57
2022/09/21 04:23:00;;;;;;;3.30;3.02;;;;;;;9.68;78.45;94473.83;1634802;86;20995;-58
2022/09/21 04:25:27;;;;;;;3.02;2.83;;;;;;;9.69;78.44;94482.23;1640993;86;21010;-62
2022/09/21 04:27:54;;;;;;;3.10;2.80;;;;;;;9.74;78.62;94485.77;1656220;85;21071;-62
2022/09/21 04:30:21;;;;;;;4.75;3.70;;;;;;;9.80;78.27;94484.00;1657836;85;20987;-59
2022/09/21 04:32:48;;;;;;;8.05;5.28;;;;;;;9.73;77.85;94486.98;1643578;86;21310;-62
2022/09/21 04:35:15;;;;;;;10.85;7.00;;;;;;;9.62;78.26;94482.50;1654605;86;21091;-64
2022/09/21 04:37:42;;;;;;;9.15;6.42;;;;;;;9.55;78.80;94486.26;1659730;85;21040;-59
2022/09/21 04:40:09;;;;;;;7.55;6.37;;;;;;;9.61;79.31;94485.84;1657180;86;20998;-62
2022/09/21 04:42:36;;;;;;;8.55;6.87;;;;;;;9.71;79.53;94492.16;1655854;85;21095;-64
2022/09/21 04:45:05;;;;;;;8.65;7.08;;;;;;;9.85;79.33;94487.53;1647146;85;21245;-59
2022/09/21 04:47:33;;;;;;;9.55;8.05;;;;;;;9.92;78.87;94491.37;1658363;85;21088;-59
2022/09/21 04:50:00;;;;;;;14.95;10.72;;;;;;;9.95;78.74;94488.52;1656457;85;21106;-59
2022/09/21 04:52:27;;;;;;;12.82;11.15;;;;;;;9.95;78.31;94484.39;1654476;85;21049;-59
2022/09/21 04:54:53;;;;;;;6.78;5.80;;;;;;;9.91;78.55;94487.88;1656785;85;21004;-59
2022/09/21 04:57:20;;;;;;;9.28;6.80;;;;;;;9.87;77.41;94489.22;1634058;85;21263;-57
2022/09/21 04:59:47;;;;;;;7.33;5.72;;;;;;;9.81;77.46;94483.53;1650419;85;21015;-58
2022/09/21 05:02:13;;;;;;;9.10;6.70;;;;;;;9.80;77.63;94492.23;1643679;85;21051;-59
2022/09/21 05:04:41;;;;;;;10.38;6.12;;;;;;;9.85;77.60;94484.78;1659559;86;21020;-57
2022/09/21 05:07:07;;;;;;;7.10;6.00;;;;;;;9.86;77.75;94485.72;1659357;85;20986;-59
2022/09/21 05:12:21;;;;;;;5.75;5.20;;;;;;;9.78;78.41;94491.30;1656107;84;21508;-58
2022/09/21 05:14:48;;;;;;;4.60;4.20;;;;;;;9.87;78.59;94492.75;1651085;86;21555;-61
2022/09/21 05:17:15;;;;;;;7.20;5.10;;;;;;;10.01;78.55;94492.83;1650255;85;21035;-60
2022/09/21 05:19:42;;;;;;;4.58;3.87;;;;;;;10.14;78.15;94492.17;1607230;86;21131;-58
2022/09/21 05:22:09;;;;;;;8.38;5.55;;;;;;;10.32;77.70;94488.14;1667962;85;21270;-61
2022/09/21 05:24:36;;;;;;;5.17;4.65;;;;;;;10.50;76.99;94490.97;1672576;85;21026;-58
2022/09/21 05:27:04;;;;;;;6.78;6.08;;;;;;;10.64;76.45;94489.02;1673743;85;21058;-62
2022/09/21 05:29:32;;;;;;;5.72;5.12;;;;;;;10.77;75.85;94491.83;1673462;84;21035;-60
2022/09/21 05:32:13;;;;;;;44.18;27.40;;;;;;;10.84;75.57;94497.80;1657657;85;20995;-61
2022/09/21 05:34:55;;;;;;;164.05;79.15;;;;;;;10.93;75.39;94497.83;1616091;87;21192;-59
2022/09/21 05:37:44;;;;;;;38.98;24.20;;;;;;;10.96;74.36;94495.54;1644064;85;21044;-60
2022/09/21 05:40:12;;;;;;;15.53;11.08;;;;;;;10.91;74.33;94496.15;1647028;86;21138;-62
2022/09/21 05:42:41;;;;;;;8.23;6.58;;;;;;;10.86;74.30;94494.00;1658530;85;21046;-62
2022/09/21 05:45:13;;;;;;;7.83;5.65;;;;;;;10.79;74.32;94494.27;1645039;85;21075;-64
2022/09/21 05:47:59;;;;;;;10.80;7.40;;;;;;;10.73;74.40;94493.19;1612059;87;21292;-60
2022/09/21 05:50:49;;;;;;;11.85;8.65;;;;;;;10.62;74.61;94496.36;1593241;88;21094;-60
2022/09/21 05:53:24;;;;;;;12.98;9.83;;;;;;;10.62;75.36;94492.23;1621097;86;21485;-63
2022/09/21 05:55:57;;;;;;;24.85;16.77;;;;;;;10.75;75.23;94493.66;1584029;86;21591;-61
2022/09/21 05:58:52;;;;;;;17.85;9.30;;;;;;;10.90;74.65;94497.37;1623362;86;27179;-63
2022/09/21 06:01:34;;;;;;;16.55;11.48;;;;;;;11.00;74.42;94496.16;1646932;84;21267;-63
2022/09/21 06:04:02;;;;;;;12.93;10.03;;;;;;;10.99;73.91;94501.50;1642185;84;21094;-61
2022/09/21 06:06:29;;;;;;;18.42;13.88;;;;;;;10.88;73.70;94498.44;1634341;85;21115;-61
2022/09/21 06:08:55;;;;;;;19.85;14.65;;;;;;;10.79;74.06;94490.14;1638696;85;21388;-62
2022/09/21 06:11:22;;;;;;;42.90;27.45;;;;;;;10.83;74.31;94500.39;1636276;85;21077;-64
2022/09/21 06:13:49;;;;;;;22.80;15.38;;;;;;;10.83;74.16;94501.02;1633568;85;21123;-61
2022/09/21 06:16:15;;;;;;;113.25;53.25;;;;;;;10.85;74.48;94504.86;1625137;86;21167;-62
2022/09/21 06:18:43;;;;;;;52.60;31.07;;;;;;;10.90;74.41;94507.00;1633312;84;21593;-60
2022/09/21 06:21:09;;;;;;;21.93;14.20;;;;;;;10.95;74.30;94503.64;1653843;84;21549;-64
2022/09/21 06:23:37;;;;;;;9.75;8.03;;;;;;;10.95;73.75;94502.89;1651414;86;21191;-62
2022/09/21 06:26:04;;;;;;;6.22;5.17;;;;;;;10.88;73.85;94503.94;1607651;87;21338;-60
2022/09/21 06:28:31;;;;;;;4.90;4.35;;;;;;;10.84;73.69;94510.17;1627448;86;21016;-63
2022/09/21 06:30:58;;;;;;;10.85;9.58;;;;;;;10.81;73.70;94510.34;1629715;86;21047;-65
2022/09/21 06:33:25;;;;;;;24.87;22.22;;;;;;;10.79;74.10;94512.78;1632196;85;21096;-60
2022/09/21 06:35:58;;;;;;;9.40;8.13;;;;;;;10.86;74.46;94516.02;1631660;86;21007;-62
2022/09/21 06:38:26;;;;;;;;;;;;;;;11.05;74.92;94518.20;1650880;86;21745;-58
2022/09/21 06:40:53;;;;;;;5.20;3.90;;;;;;;11.25;74.06;94514.41;1634654;86;20538;-61
2022/09/21 06:43:20;;;;;;;13.20;3.47;;;;;;;11.34;72.81;94521.32;1632317;85;21875;-62
2022/09/21 06:45:55;;;;;;;5.55;3.40;;;;;;;11.41;72.47;94519.04;1659636;85;21175;-66
2022/09/21 06:48:22;;;;;;;6.37;5.78;;;;;;;11.55;71.85;94519.80;1657071;85;21033;-62
2022/09/21 06:50:50;;;;;;;4.15;3.47;;;;;;;11.69;71.67;94519.22;1637487;85;22705;-62
2022/09/21 06:53:17;;;;;;;8.28;4.05;;;;;;;11.82;70.96;94519.84;1631302;85;21089;-58
2022/09/21 06:55:43;;;;;;;5.28;2.83;;;;;;;11.94;70.31;94518.14;1654870;85;21215;-62
2022/09/21 06:58:10;;;;;;;4.00;3.20;;;;;;;12.01;69.41;94518.59;1646157;84;21069;-61
2022/09/21 07:00:37;;;;;;;6.30;3.83;;;;;;;12.06;69.30;94520.73;1635658;86;21019;-60
2022/09/21 07:03:04;;;;;;;4.10;3.27;;;;;;;12.10;69.51;94520.58;1625257;85;21253;-62
2022/09/21 07:05:33;;;;;;;4.40;3.62;;;;;;;12.23;69.05;94521.93;1616811;86;21083;-60
2022/09/21 07:08:01;;;;;;;2.62;2.40;;;;;;;12.36;68.84;94517.00;1644482;85;21000;-60
2022/09/21 07:10:27;;;;;;;3.02;2.77;;;;;;;12.49;66.06;94516.18;1645420;85;21044;-63
2022/09/21 07:12:54;;;;;;;3.20;2.52;;;;;;;12.57;66.41;94514.64;1623103;84;21090;-61
2022/09/21 07:15:21;;;;;;;4.28;2.98;;;;;;;12.60;65.12;94526.13;1615308;86;21290;-61
2022/09/21 07:17:48;;;;;;;3.10;2.30;;;;;;;12.56;65.37;94524.15;1623856;86;21068;-58
2022/09/21 07:20:15;;;;;;;2.70;2.33;;;;;;;12.53;64.81;94529.22;1632983;86;21653;-58
2022/09/21 07:22:42;;;;;;;4.03;3.10;;;;;;;12.35;64.87;94534.00;1606038;85;21560;-62
2022/09/21 07:25:09;;;;;;;4.70;3.90;;;;;;;12.18;66.07;94545.22;1621463;85;21660;-59
2022/09/21 07:27:36;;;;;;;3.08;2.72;;;;;;;12.09;67.11;94542.48;1639438;85;22736;-61
2022/09/21 07:30:04;;;;;;;5.70;5.10;;;;;;;11.99;67.88;94540.36;1644886;85;21106;-58
2022/09/21 07:32:31;;;;;;;4.22;2.83;;;;;;;11.96;68.00;94554.28;1639875;86;21207;-59
2022/09/21 07:34:58;;;;;;;2.30;2.10;;;;;;;12.02;68.54;94555.97;1588584;88;21125;-61
2022/09/21 07:37:26;;;;;;;8.40;6.42;;;;;;;12.08;68.93;94551.36;1577788;88;21049;-61
2022/09/21 07:39:53;;;;;;;6.92;5.55;;;;;;;12.10;68.63;94558.55;1589764;87;21269;-60
2022/09/21 07:42:21;;;;;;;7.37;6.67;;;;;;;12.08;67.76;94546.47;1605697;86;21114;-60
2022/09/21 07:44:48;;;;;;;26.12;17.57;;;;;;;12.07;67.77;94550.45;1624983;85;21439;-62
2022/09/21 07:47:15;;;;;;;26.87;19.87;;;;;;;12.05;68.12;94561.94;1627688;86;21652;-58
2022/09/21 07:49:42;;;;;;;17.00;12.73;;;;;;;12.04;68.49;94563.16;1591961;87;21092;-62
2022/09/21 07:52:10;;;;;;;16.67;11.30;;;;;;;12.02;68.18;94567.00;1632163;85;21075;-62
2022/09/21 07:54:37;;;;;;;8.98;7.17;;;;;;;11.92;67.62;94573.72;1636567;86;21014;-58
2022/09/21 07:59:51;;;;;;;22.58;15.43;;;;;;;11.64;68.74;94581.84;1632905;86;21019;-63
2022/09/21 08:02:18;;;;;;;29.25;19.62;;;;;;;11.56;67.88;94576.45;1616949;86;21120;-63
2022/09/21 08:04:44;;;;;;;11.12;9.10;;;;;;;11.49;67.82;94575.35;1626722;86;21234;-64
2022/09/21 08:07:12;;;;;;;8.05;6.40;;;;;;;11.32;68.45;94574.09;1638544;85;21075;-63
2022/09/21 08:09:40;;;;;;;8.95;7.05;;;;;;;11.17;69.69;94577.89;1637008;85;21151;-61
2022/09/21 08:12:07;;;;;;;6.25;5.33;;;;;;;11.04;71.26;94576.63;1638210;86;21564;-62
2022/09/21 08:14:35;;;;;;;4.00;3.45;;;;;;;10.98;72.54;94578.42;1618759;86;21412;-60
2022/09/21 08:17:02;;;;;;;2.98;2.70;;;;;;;10.93;73.14;94583.75;1612731;86;21468;-60
2022/09/21 08:19:29;;;;;;;6.28;4.62;;;;;;;10.85;73.33;94580.53;1629099;86;21145;-63
2022/09/21 08:21:56;;;;;;;3.60;3.30;;;;;;;10.85;73.89;94577.00;1641128;86;21604;-61
2022/09/21 08:24:25;;;;;;;6.08;5.58;;;;;;;10.85;74.66;94577.78;1634261;86;21161;-59
2022/09/21 08:26:52;;;;;;;4.00;3.70;;;;;;;10.89;73.36;94578.41;1620771;86;21149;-61
2022/09/21 08:29:18;;;;;;;7.55;6.80;;;;;;;10.94;73.17;94579.18;1626877;85;21111;-62
2022/09/21 08:31:47;;;;;;;6.08;4.72;;;;;;;10.99;73.99;94586.84;1592622;86;21163;-62
2022/09/21 08:34:14;;;;;;;3.45;3.12;;;;;;;11.00;75.21;94578.73;1623111;85;21084;-62
2022/09/21 08:36:44;;;;;;;6.87;6.03;;;;;;;11.05;75.26;94574.63;1621160;86;21116;-62
2022/09/21 08:39:11;;;;;;;6.85;6.15;;;;;;;11.09;75.00;94576.03;1623859;85;21041;-59
2022/09/21 08:42:25;;;;;;;5.80;5.12;;;;;;;11.09;74.93;94582.91;1639538;85;21535;-60
2022/09/21 08:44:58;;;;;;;3.60;2.85;;;;;;;11.04;74.96;94579.38;1635583;85;21114;-59
2022/09/21 08:47:49;;;;;;;3.30;2.65;;;;;;;10.94;75.57;94578.40;1641835;85;21531;-60
2022/09/21 08:50:36;;;;;;;3.70;3.10;;;;;;;10.91;75.65;94577.34;1643984;84;21788;-59
2022/09/21 08:53:07;;;;;;;5.20;4.62;;;;;;;10.94;75.68;94574.27;1634343;86;21547;-59
2022/09/21 08:55:34;;;;;;;4.47;4.08;;;;;;;11.03;75.65;94583.36;1644102;86;21792;-64
2022/09/21 08:58:01;;;;;;;4.25;2.77;;;;;;;11.16;76.09;94573.60;1635863;85;21052;-62
2022/09/21 09:00:33;;;;;;;2.75;2.55;;;;;;;11.30;75.25;94577.14;1608991;85;21095;-58
2022/09/21 09:03:27;;;;;;;4.47;3.83;;;;;;;11.43;74.71;94568.92;1642077;85;21765;-58
2022/09/21 09:06:09;;;;;;;2.77;2.58;;;;;;;11.54;74.92;94570.61;1622453;85;21070;-60
2022/09/21 09:09:07;;;;;;;3.77;3.42;;;;;;;11.76;73.98;94563.03;1632832;86;22318;-61
2022/09/21 09:12:09;;;;;;;5.25;3.35;;;;;;;12.01;73.29;94569.61;1583893;87;21171;-59
2022/09/21 09:15:15;;;;;;;4.20;3.33;;;;;;;12.21;72.28;94571.27;1587845;87;21090;-61
2022/09/21 09:18:11;;;;;;;4.80;3.50;;;;;;;12.28;71.57;94561.29;1585464;89;21203;-61
2022/09/21 09:20:43;;;;;;;4.15;3.17;;;;;;;12.31;70.86;94561.77;1598699;87;21207;-60
2022/09/21 09:23:32;;;;;;;7.65;3.90;;;;;;;12.28;70.89;94557.16;1596787;87;21275;-58
2022/09/21 09:26:04;;;;;;;5.55;4.37;;;;;;;12.30;71.12;94562.97;1593803;89;21144;-61
2022/09/21 09:28:39;;;;;;;6.55;4.67;;;;;;;12.31;71.11;94555.48;1601317;87;21136;-62
2022/09/21 09:31:24;;;;;;;4.10;3.75;;;;;;;12.39;71.35;94549.78;1597792;87;21079;-59
2022/09/21 09:33:57;;;;;;;7.00;3.70;;;;;;;12.44;71.47;94546.41;1591563;89;21082;-61
2022/09/21 09:36:31;;;;;;;5.03;3.52;;;;;;;12.53;70.44;94541.64;1580585;87;21170;-63
2022/09/21 09:39:11;;;;;;;7.08;3.75;;;;;;;12.72;70.31;94531.44;1556055;90;21321;-64
2022/09/21 09:42:09;;;;;;;4.00;3.58;;;;;;;12.96;69.56;94540.59;1588296;88;21061;-62
2022/09/21 09:45:09;;;;;;;3.02;2.75;;;;;;;13.07;68.42;94534.56;1581832;88;21121;-66
2022/09/21 09:48:11;;;;;;;6.37;3.40;;;;;;;13.24;67.43;94526.78;1593440;88;21105;-59
2022/09/21 09:50:39;;;;;;;5.50;3.00;;;;;;;13.49;67.36;94529.70;1586208;88;21514;-61
2022/09/21 09:53:25;;;;;;;4.45;2.47;;;;;;;13.76;66.10;94530.88;1578612;89;21099;-63
2022/09/21 09:55:55;;;;;;;9.90;2.90;;;;;;;13.87;66.40;94522.81;1598142;87;21069;-62
2022/09/21 09:58:59;;;;;;;9.95;2.90;;;;;;;13.89;65.92;94521.72;1633290;85;21061;-61
2022/09/21 10:01:45;;;;;;;15.38;6.15;;;;;;;13.89;65.75;94517.57;1627602;86;21163;-63
2022/09/21 10:04:16;;;;;;;6.53;2.58;;;;;;;13.84;65.73;94514.84;1619824;87;21180;-62
2022/09/21 10:06:44;;;;;;;8.73;3.12;;;;;;;14.00;64.76;94508.12;1629495;86;21041;-64
2022/09/21 10:09:27;;;;;;;8.50;4.65;;;;;;;14.49;64.61;94512.55;1640655;85;21054;-63
2022/09/21 10:12:03;;;;;;;12.18;5.65;;;;;;;15.13;63.06;94516.72;1636441;86;21066;-63
2022/09/21 10:14:34;;;;;;;4.50;3.00;;;;;;;15.73;61.46;94509.27;1626240;86;21055;-64
2022/09/21 10:17:06;;;;;;;10.10;2.83;;;;;;;16.25;58.90;94514.30;1642937;86;21220;-62
2022/09/21 10:19:37;;;;;;;7.03;2.98;;;;;;;16.48;56.70;94498.77;1647646;86;20985;-64
2022/09/21 10:22:05;;;;;;;9.98;2.40;;;;;;;16.63;56.05;94502.19;1585734;88;21078;-62
2022/09/21 10:24:41;;;;;;;18.17;9.63;;;;;;;16.75;54.93;94495.48;1599883;87;21105;-59
2022/09/21 10:27:16;;;;;;;12.00;10.80;;;;;;;16.81;54.68;94496.28;1613819;86;21603;-61
2022/09/21 10:29:46;;;;;;;12.95;6.95;;;;;;;16.71;54.11;94496.34;1639615;86;21128;-62
2022/09/21 10:32:21;;;;;;;5.75;2.98;;;;;;;16.56;54.04;94495.70;1645292;86;21082;-62
2022/09/21 10:35:12;;;;;;;4.87;3.40;;;;;;;16.30;53.41;94493.52;1626909;86;21468;-69
2022/09/21 10:37:45;;;;;;;3.25;2.77;;;;;;;16.01;54.77;94508.98;1633808;86;21093;-68
2022/09/21 10:40:25;;;;;;;3.77;2.42;;;;;;;15.90;56.05;94510.23;1578520;88;21102;-60
2022/09/21 10:42:58;;;;;;;6.92;4.78;;;;;;;15.86;57.04;94506.91;1634258;86;21210;-60
2022/09/21 10:45:31;;;;;;;6.85;6.15;;;;;;;15.61;57.36;94511.78;1632124;86;21119;-59
2022/09/21 10:48:15;;;;;;;11.85;8.73;;;;;;;15.45;58.83;94510.94;1633731;86;20991;-60
2022/09/21 10:50:45;;;;;;;12.90;11.05;;;;;;;15.41;57.95;94503.45;1602480;87;21169;-60
2022/09/21 10:53:33;;;;;;;7.05;5.42;;;;;;;15.44;57.89;94509.41;1618297;87;21103;-61
2022/09/21 10:56:07;;;;;;;10.75;9.65;;;;;;;15.46;57.48;94511.07;1649532;85;21861;-61
2022/09/21 10:58:38;;;;;;;7.78;6.42;;;;;;;15.29;57.48;94512.07;1637494;86;21024;-61
2022/09/21 11:01:17;;;;;;;8.80;6.37;;;;;;;14.96;58.47;94505.40;1641347;85;21343;-61
2022/09/21 11:04:06;;;;;;;8.63;6.50;;;;;;;14.69;59.76;94509.89;1639003;86;21159;-57
2022/09/21 11:06:44;;;;;;;11.18;8.83;;;;;;;14.51;60.53;94499.02;1639182;85;21135;-61
2022/09/21 11:09:38;;;;;;;9.88;8.28;;;;;;;14.55;60.93;94517.58;1634668;86;21331;-63
2022/09/21 11:12:37;;;;;;;1.92;1.80;;;;;;;14.62;60.68;94517.82;1641847;85;21020;-63
2022/09/21 11:15:36;;;;;;;1.45;1.35;;;;;;;14.59;60.90;94516.02;1618229;87;21014;-64
2022/09/21 11:18:39;;;;;;;2.10;1.57;;;;;;;14.31;59.96;94516.75;1608258;87;21090;-62
2022/09/21 11:21:40;;;;;;;1.40;1.30;;;;;;;14.09;61.23;94514.33;1597809;87;21167;-61
2022/09/21 11:24:26;;;;;;;11.45;8.58;;;;;;;14.06;61.71;94506.21;1609276;87;21243;-58
2022/09/21 11:27:02;;;;;;;6.80;5.78;;;;;;;14.07;62.00;94507.13;1633751;86;21187;-59
2022/09/21 11:29:47;;;;;;;3.20;2.90;;;;;;;14.30;61.60;94505.53;1608550;87;21037;-66
2022/09/21 11:32:35;;;;;;;10.75;7.50;;;;;;;14.43;58.26;94506.02;1606475;86;21087;-68
2022/09/21 11:35:21;;;;;;;4.30;3.90;;;;;;;14.33;58.64;94500.45;1607958;87;21101;-63
2022/09/21 11:38:05;;;;;;;4.70;4.30;;;;;;;14.19;59.16;94501.95;1611682;87;22310;-63
2022/09/21 11:41:14;;;;;;;19.77;15.72;;;;;;;14.05;59.22;94500.53;1638077;86;21038;-63
2022/09/21 11:44:10;;;;;;;41.35;32.63;;;;;;;14.03;59.41;94499.61;1639744;85;21075;-60
2022/09/21 11:47:16;;;;;;;4.05;3.65;;;;;;;14.25;60.16;94499.30;1645240;85;21072;-62
2022/09/21 11:50:04;;;;;;;2.30;2.10;;;;;;;14.71;58.96;94501.87;1643921;86;21173;-60
2022/09/21 11:52:52;;;;;;;1.90;1.80;;;;;;;15.74;57.90;94499.70;1654121;86;21182;-61
2022/09/21 11:55:43;;;;;;;1.75;1.30;;;;;;;17.02;55.07;94491.53;1652197;85;21252;-56
2022/09/21 11:58:22;;;;;;;1.92;1.65;;;;;;;18.18;52.50;94487.98;1637597;86;21046;-60
2022/09/21 12:01:23;;;;;;;1.87;1.77;;;;;;;18.67;50.79;94481.88;1655795;85;21232;-60
2022/09/21 12:04:02;;;;;;;4.97;1.87;;;;;;;18.61;49.17;94490.13;1611546;87;21016;-60
2022/09/21 12:06:41;;;;;;;3.15;2.42;;;;;;;18.12;50.67;94496.93;1624013;86;21370;-62
2022/09/21 12:09:40;;;;;;;5.30;2.52;;;;;;;17.54;50.55;94490.74;1629408;85;21075;-59
2022/09/21 12:12:17;;;;;;;4.62;3.35;;;;;;;16.75;51.31;94493.45;1631170;86;21564;-60